大分空港の過去48時間の天気

大分空港 (Oita)

現在時刻: 4/26 20:25 JST (4/26 11:25 UTC) 以下の時間は現地時間です。

過去48時間のMETAR気象情報
時間 風向 風速(m/s) 視程 気温(℃) 湿度(%) 気圧(hPa) 天気現象
26 20:00 西北西 2 10km以上 13 77 1012
26 19:00 不定 1 10km以上 15 67 1012
26 18:00 南南西 2 10km以上 15 63 1012
26 17:00 不定 1 10km以上 15 67 1012
26 16:00 不定 1 10km以上 16 63 1012
26 15:00 不定 2 10km以上 15 67 1013
26 14:00 東北東 2 10km以上 15 63 1013
26 13:00 北東 4 10km以上 16 59 1013
26 12:00 北東 5 10km以上 15 63 1014
26 11:00 北北東 5 10km以上 15 63 1014
26 10:00 北北東 6 10km以上 14 67 1015
26 09:00 北北東 4 10km以上 14 72 1015
26 08:00 北北西 4 10km以上 13 77 1014
26 07:00 北西 3 10km以上 11 87 1014
25 22:00 北北西 4 10km以上 12 82 1012
25 21:00 北西 5 10km以上 12 82 1012
25 20:00 北西 5 10km以上 13 77 1011
25 19:00 北西 4 10km以上 14 77 1010
25 18:00 北北西 6 10km以上 16 72 1010
25 17:00 北西 7 10km以上 17 68 1009
25 16:00 北西 6 10km以上 17 68 1009
25 15:00 北西 6 10km以上 18 68 1009
25 14:00 西 5 10km以上 18 64 1009
25 13:00 北西 6 10km以上 19 60 1009
25 12:00 北西 7 10km以上 18 64 1009
25 11:00 北西 7 10km以上 17 68 1009
25 10:00 北西 6 10km以上 18 60 1009
25 09:00 北西 6 10km以上 17 68 1009
25 08:00 北西 5 10km以上 15 77 1008
25 07:00 北西 5 10km以上 15 77 1008
24 22:00 北西 5 10km以上 15 94 1003 弱いしゅう雨
24 21:17 北西 7 6,000m 15 94 1003 弱いしゅう雨
24 21:00 北西 6 5,000m 16 94 1003 しゅう雨 もや
24 20:41 北西 4 7,000m 16 94 1003 しゅう雨
RJFO 261100Z 30004KT CAVOK 13/09 Q1012
RJFO 261000Z VRB02KT 9999 FEW030 SCT170 BKN/// 15/09 Q1012
RJFO 260900Z 21003KT 9999 FEW030 SCT120 BKN160 15/08 Q1012
RJFO 260800Z VRB02KT 9999 FEW030 BKN150 BKN/// 15/09 Q1012
RJFO 260700Z VRB01KT 9999 FEW030 BKN160 BKN/// 16/09 Q1012
RJFO 260600Z VRB03KT 9999 FEW030 BKN/// 15/09 Q1013
RJFO 260500Z 07004KT 010V090 9999 FEW035 BKN/// 15/08 Q1013
RJFO 260400Z 05008KT 9999 FEW035 BKN/// 16/08 Q1013
RJFO 260300Z 04010KT CAVOK 15/08 Q1014
RJFO 260200Z 03009KT CAVOK 15/08 Q1014
RJFO 260100Z 03011KT 9999 FEW030 BKN/// 14/08 Q1015
RJFO 260000Z 03007KT 9999 FEW030 BKN/// 14/09 Q1015
RJFO 252300Z 33007KT 9999 FEW020 BKN/// 13/09 Q1014
RJFO 252200Z 32005KT 9999 FEW015 BKN/// 11/09 Q1014
RJFO 251300Z 33007KT 300V010 9999 FEW025 12/09 Q1012
RJFO 251200Z 32009KT 9999 FEW025 12/09 Q1012
RJFO 251100Z 31009KT 9999 FEW020 SCT035 13/09 Q1011
RJFO 251000Z 32008KT 9999 FEW020 SCT045 BKN/// 14/10 Q1010
RJFO 250900Z 33012KT 280V350 9999 FEW020 SCT040 BKN/// 16/11 Q1010
RJFO 250800Z 32014KT 280V360 9999 FEW020 SCT025 BKN/// 17/11 Q1009
RJFO 250700Z 32011KT 270V340 9999 FEW020 SCT025 BKN/// 17/11 Q1009
RJFO 250600Z 32011KT 9999 FEW015 BKN030 BKN/// 18/12 Q1009
RJFO 250500Z 28010KT 9999 FEW015 BKN030 BKN040 18/11 Q1009
RJFO 250400Z 31012KT 270V340 9999 FEW015 SCT030 BKN040 19/11 Q1009
RJFO 250300Z 31014KT 9999 FEW010 BKN/// 18/11 Q1009
RJFO 250200Z 32014KT 9999 SCT025 BKN/// 17/11 Q1009
RJFO 250100Z 32011KT 280V350 9999 FEW035 SCT080 BKN/// 18/10 Q1009
RJFO 250000Z 32011G22KT 9999 FEW020 BKN035 BKN080 17/11 Q1009
RJFO 242300Z 31010G21KT 280V340 9999 FEW020 BKN033 15/11 Q1008
RJFO 242200Z 31010KT 270V340 9999 FEW020 SCT035 BKN080 15/11 Q1008
RJFO 241300Z 32010KT 300V010 9999 -SHRA FEW010 BKN035 15/14 Q1003
RJFO 241217Z 32013G25KT 270V010 6000 -SHRA FEW015 BKN030 BKN035 15/14 Q1003 RMK 1CU015 6CU030 7CU035 A2964
RJFO 241200Z 32011G21KT 290V010 5000 SHRA BR FEW010 BKN025 BKN030 16/15 Q1003
RJFO 241141Z 32008KT 290V350 7000 SHRA FEW008 BKN023 BKN030 16/15 Q1003 RMK 1ST008 5CU023 7CU030 A2964